Time;durP1;ratioP1;P1;durP2;ratioP2;P2;SDS_P1;SDS_P2;PMS_P1;PMS_P2;Temp;Humidity;BMP_temperature;BMP_pressure;BME280_temperature;BME280_humidity;BME280_pressure;Samples;Min_cycle;Max_cycle;Signal;HPM_P1;HPM_P2
2023/05/11 00:01:15;;;;;;;2.40;2.00;;;;;;;12.38;100.00;97513.06;1704149;75;750057;-72
2023/05/11 00:03:45;;;;;;;2.05;1.85;;;;;;;12.35;100.00;97512.06;1709833;75;926435;-74
2023/05/11 00:06:18;;;;;;;2.90;1.95;;;;;;;12.46;100.00;97503.13;1703962;75;745621;-72
2023/05/11 00:08:48;;;;;;;1.40;1.30;;;;;;;12.52;100.00;97503.91;1711764;75;727220;-76
2023/05/11 00:11:18;;;;;;;2.05;1.40;;;;;;;12.46;100.00;97507.84;1703230;75;757486;-75
2023/05/11 00:13:48;;;;;;;1.50;1.30;;;;;;;12.38;100.00;97498.59;1638348;75;6873146;-73
2023/05/11 00:16:18;;;;;;;1.10;1.00;;;;;;;12.45;100.00;97504.38;1700566;75;895224;-74
2023/05/11 00:18:48;;;;;;;1.00;0.90;;;;;;;12.49;100.00;97501.41;1709392;75;930467;-73
2023/05/11 00:21:21;;;;;;;1.35;1.20;;;;;;;12.46;100.00;97497.66;1700913;75;834448;-74
2023/05/11 00:23:52;;;;;;;0.90;0.90;;;;;;;12.42;100.00;97494.38;1710111;75;863158;-75
2023/05/11 00:26:22;;;;;;;1.90;1.40;;;;;;;12.37;100.00;97486.88;1703049;75;746843;-75
2023/05/11 00:28:52;;;;;;;2.10;1.20;;;;;;;12.38;100.00;97490.34;1712315;75;673780;-72
2023/05/11 00:31:24;;;;;;;1.50;1.40;;;;;;;12.39;100.00;97491.84;1702901;75;751145;-73
2023/05/11 00:33:55;;;;;;;1.10;1.00;;;;;;;12.45;100.00;97492.63;1711835;75;674569;-73
2023/05/11 00:36:28;;;;;;;1.20;1.10;;;;;;;12.40;100.00;97493.38;1703827;75;749317;-73
2023/05/11 00:38:58;;;;;;;1.20;1.10;;;;;;;12.40;100.00;97496.13;1711712;75;676075;-77
2023/05/11 00:41:29;;;;;;;1.20;1.10;;;;;;;12.32;100.00;97485.59;1703470;75;749992;-75
2023/05/11 00:44:00;;;;;;;1.60;1.20;;;;;;;12.31;100.00;97486.06;1711751;75;684777;-76
2023/05/11 00:46:30;;;;;;;1.25;1.15;;;;;;;12.33;100.00;97484.34;1703393;75;750095;-73
2023/05/11 00:49:02;;;;;;;1.50;1.30;;;;;;;12.26;100.00;97482.06;1712620;75;671303;-72
2023/05/11 00:51:36;;;;;;;1.55;1.20;;;;;;;12.26;100.00;97475.81;1703110;75;750841;-74
2023/05/11 00:54:11;;;;;;;1.50;1.00;;;;;;;12.22;100.00;97473.31;1712047;75;679052;-75
2023/05/11 00:56:43;;;;;;;1.70;1.50;;;;;;;12.17;100.00;97481.50;1703656;75;743002;-72
2023/05/11 00:59:13;;;;;;;1.70;1.50;;;;;;;12.15;100.00;97480.03;1711921;75;673742;-73
2023/05/11 01:01:43;;;;;;;2.80;1.40;;;;;;;12.03;100.00;97475.72;1700707;75;909243;-72
2023/05/11 01:04:14;;;;;;;2.05;1.65;;;;;;;12.06;100.00;97476.72;1709123;75;946875;-73
2023/05/11 01:07:08;;;;;;;1.70;1.60;;;;;;;12.07;100.00;97478.22;1688694;75;1893355;-72
2023/05/11 01:09:53;;;;;;;1.85;1.70;;;;;;;12.05;100.00;97472.47;1703368;75;677855;-72
2023/05/11 01:12:47;;;;;;;1.90;1.70;;;;;;;12.01;100.00;97471.97;1700744;75;912331;-74
2023/05/11 01:15:26;;;;;;;1.90;1.70;;;;;;;12.03;100.00;97470.22;1711364;75;690005;-73
2023/05/11 01:18:07;;;;;;;2.05;1.85;;;;;;;11.96;100.00;97467.94;1703151;75;750502;-76
2023/05/11 01:20:41;;;;;;;2.70;1.80;;;;;;;12.02;100.00;97465.97;1704586;75;679013;-74
2023/05/11 01:23:45;;;;;;;2.60;1.80;;;;;;;12.02;100.00;97473.44;1711811;75;753502;-74
2023/05/11 01:26:39;;;;;;;2.00;1.80;;;;;;;12.03;100.00;97474.97;1703805;75;752827;-73
2023/05/11 01:29:33;;;;;;;2.20;2.00;;;;;;;12.04;100.00;97470.97;1704824;75;681639;-74
2023/05/11 01:32:12;;;;;;;4.80;1.80;;;;;;;12.04;100.00;97474.47;1701415;75;879335;-75
2023/05/11 01:34:45;;;;;;;2.20;1.90;;;;;;;12.00;100.00;97478.66;1712234;75;670321;-73
2023/05/11 01:37:23;;;;;;;2.25;2.05;;;;;;;11.97;100.00;97476.91;1704087;75;738838;-76
2023/05/11 01:39:57;;;;;;;2.50;2.00;;;;;;;11.95;100.00;97480.13;1690560;75;1858743;-72
2023/05/11 01:42:38;;;;;;;2.30;1.90;;;;;;;11.93;100.00;97474.41;1712707;75;671211;-73
2023/05/11 01:45:12;;;;;;;2.90;2.60;;;;;;;11.93;100.00;97477.16;1704008;75;676587;-77
2023/05/11 01:47:49;;;;;;;3.40;2.55;;;;;;;11.90;100.00;97475.38;1629399;75;7659089;-75
2023/05/11 01:50:21;;;;;;;2.75;2.25;;;;;;;11.90;100.00;97473.38;1702038;75;831088;-75
2023/05/11 01:52:53;;;;;;;3.25;2.30;;;;;;;11.93;100.00;97471.66;1710256;75;868810;-74
2023/05/11 01:55:25;;;;;;;2.90;2.20;;;;;;;11.93;100.00;97474.41;1688283;75;1979005;-73
2023/05/11 01:57:58;;;;;;;2.90;2.40;;;;;;;11.95;100.00;97477.38;1711848;75;679059;-73
2023/05/11 02:00:28;;;;;;;2.30;1.90;;;;;;;11.99;100.00;97475.19;1701442;75;856885;-73
2023/05/11 02:03:03;;;;;;;2.90;2.30;;;;;;;11.90;100.00;97473.38;1712779;75;672929;-75
2023/05/11 02:05:36;;;;;;;2.55;2.05;;;;;;;11.87;100.00;97468.13;1703236;75;748905;-74
2023/05/11 02:08:08;;;;;;;2.95;2.30;;;;;;;11.90;100.00;97473.38;1711897;75;676611;-73
2023/05/11 02:10:40;;;;;;;2.50;2.20;;;;;;;11.91;100.00;97472.13;1702360;75;800246;-73
2023/05/11 02:13:12;;;;;;;2.90;2.10;;;;;;;11.89;100.00;97469.13;1712473;75;695118;-74
2023/05/11 02:15:45;;;;;;;2.10;1.70;;;;;;;11.92;100.00;97470.16;1678379;75;2818467;-76
2023/05/11 02:18:19;;;;;;;2.20;2.00;;;;;;;11.90;100.00;97472.63;1712388;75;671946;-73
2023/05/11 02:20:51;;;;;;;2.25;2.05;;;;;;;11.89;100.00;97469.13;1703777;75;745123;-73
2023/05/11 02:23:23;;;;;;;1.90;1.70;;;;;;;11.89;100.00;97471.13;1712505;75;683454;-73
2023/05/11 02:25:56;;;;;;;2.00;1.80;;;;;;;11.92;100.00;97467.41;1703893;75;752350;-73
2023/05/11 02:28:26;;;;;;;2.00;1.80;;;;;;;11.91;100.00;97465.91;1713364;75;670415;-72
2023/05/11 02:31:04;;;;;;;2.20;1.90;;;;;;;11.86;100.00;97469.34;1704548;75;740395;-73
2023/05/11 02:33:41;;;;;;;2.50;2.10;;;;;;;11.89;100.00;97466.38;1702456;75;897171;-73
2023/05/11 02:36:12;;;;;;;3.00;2.40;;;;;;;11.93;100.00;97463.44;1710052;75;937526;-75
2023/05/11 02:38:44;;;;;;;2.60;2.20;;;;;;;11.89;100.00;97460.16;1705035;75;677263;-73
2023/05/11 02:41:18;;;;;;;4.10;2.10;;;;;;;11.86;100.00;97459.13;1709928;75;881886;-74
2023/05/11 02:43:54;;;;;;;2.40;2.00;;;;;;;11.89;100.00;97463.66;1703047;75;784667;-76
2023/05/11 02:46:30;;;;;;;2.85;2.25;;;;;;;11.80;100.00;97457.56;1712484;75;672710;-74
2023/05/11 02:49:05;;;;;;;2.60;2.10;;;;;;;11.85;100.00;97457.59;1699997;75;983637;-74
2023/05/11 02:51:39;;;;;;;2.30;2.00;;;;;;;11.87;100.00;97457.91;1711234;75;710815;-73
2023/05/11 02:54:13;;;;;;;2.20;2.00;;;;;;;11.88;100.00;97462.16;1712490;75;675136;-76
2023/05/11 02:56:44;;;;;;;2.35;1.95;;;;;;;11.86;100.00;97458.38;1704515;75;673051;-73
2023/05/11 02:59:16;;;;;;;2.20;1.90;;;;;;;11.88;100.00;97459.41;1711646;75;676971;-74
2023/05/11 03:01:47;;;;;;;2.20;1.80;;;;;;;11.86;100.00;97456.38;1704121;75;672664;-73
2023/05/11 03:04:20;;;;;;;1.90;1.70;;;;;;;11.88;100.00;97455.91;1712054;75;674668;-76
2023/05/11 03:06:50;;;;;;;1.60;1.50;;;;;;;11.89;100.00;97454.66;1704139;75;703750;-73
2023/05/11 03:09:21;;;;;;;1.80;1.60;;;;;;;11.91;100.00;97454.94;1697522;75;1970402;-75
2023/05/11 03:11:51;;;;;;;2.85;1.95;;;;;;;11.94;100.00;97456.69;1680064;75;2752476;-73
2023/05/11 03:14:22;;;;;;;1.80;1.50;;;;;;;11.94;100.00;97451.97;1712037;75;683246;-74
2023/05/11 03:16:53;;;;;;;1.40;1.30;;;;;;;11.94;100.00;97451.22;1704238;75;692391;-76
2023/05/11 03:19:26;;;;;;;1.25;1.15;;;;;;;11.93;100.00;97457.94;1712295;75;670252;-73
2023/05/11 03:22:00;;;;;;;1.50;1.40;;;;;;;11.99;100.00;97455.22;1633676;75;6657233;-73
2023/05/11 03:24:30;;;;;;;2.15;1.30;;;;;;;11.90;100.00;97456.91;1674080;75;3931779;-73
2023/05/11 03:27:02;;;;;;;2.00;1.50;;;;;;;11.91;100.00;97447.47;1700967;75;961854;-73
2023/05/11 03:29:37;;;;;;;1.40;1.20;;;;;;;11.98;100.00;97454.47;1712678;75;677240;-73
2023/05/11 03:32:08;;;;;;;1.15;1.05;;;;;;;11.99;100.00;97452.47;1678933;75;2756663;-74
2023/05/11 03:34:41;;;;;;;1.25;1.15;;;;;;;11.93;100.00;97452.47;1698611;75;1869866;-74
2023/05/11 03:37:16;;;;;;;1.30;1.10;;;;;;;11.94;100.00;97457.44;1703823;75;755124;-74
2023/05/11 03:39:49;;;;;;;1.60;1.10;;;;;;;11.92;100.00;97457.19;1704586;75;676836;-73
2023/05/11 03:42:23;;;;;;;1.20;1.10;;;;;;;11.89;100.00;97454.66;1710373;75;842796;-73
2023/05/11 03:44:58;;;;;;;1.80;1.50;;;;;;;11.81;100.00;97454.34;1702668;75;745531;-76
2023/05/11 03:47:30;;;;;;;1.60;1.50;;;;;;;11.82;100.00;97447.63;1711338;75;685429;-74
2023/05/11 03:50:03;;;;;;;;;;;;;;;11.73;100.00;97447.81;1688918;75;1912777;-73
2023/05/11 03:52:34;;;;;;;2.50;2.00;;;;;;;11.73;100.00;97450.53;1711644;75;673552;-74
2023/05/11 03:55:05;;;;;;;3.30;2.40;;;;;;;11.71;100.00;97451.03;1702947;75;705073;-75
2023/05/11 03:57:36;;;;;;;2.00;1.80;;;;;;;11.79;100.00;97445.13;1710746;75;680843;-74
2023/05/11 04:00:09;;;;;;;6.00;1.80;;;;;;;11.78;100.00;97449.06;1701032;75;857658;-73
2023/05/11 04:02:39;;;;;;;2.50;1.85;;;;;;;11.80;100.00;97444.59;1710768;75;677114;-74
2023/05/11 04:05:17;;;;;;;3.00;2.00;;;;;;;11.78;100.00;97447.09;1702552;75;686413;-75
2023/05/11 04:07:47;;;;;;;3.30;2.00;;;;;;;11.82;100.00;97447.63;1700832;75;844090;-74
2023/05/11 04:10:17;;;;;;;2.10;1.70;;;;;;;11.84;100.00;97445.13;1710731;75;742849;-76
2023/05/11 04:12:47;;;;;;;3.30;2.10;;;;;;;11.73;100.00;97445.06;1703138;75;684200;-73
2023/05/11 04:15:18;;;;;;;2.20;1.90;;;;;;;11.84;100.00;97447.88;1707794;75;1006328;-77
2023/05/11 04:17:48;;;;;;;2.30;2.10;;;;;;;11.78;100.00;97441.59;1703480;75;677417;-75
2023/05/11 04:20:21;;;;;;;4.50;2.20;;;;;;;11.75;100.00;97442.59;1686508;75;2783731;-78
2023/05/11 04:22:51;;;;;;;2.70;2.30;;;;;;;11.80;100.00;97436.38;1688964;75;1877892;-77
2023/05/11 04:25:22;;;;;;;4.10;2.70;;;;;;;11.76;100.00;97435.88;1710919;75;698293;-73
2023/05/11 04:27:52;;;;;;;3.00;2.30;;;;;;;11.85;100.00;97446.63;1700749;75;902959;-73
2023/05/11 04:30:22;;;;;;;2.80;2.30;;;;;;;11.82;100.00;97452.34;1709840;75;805705;-73
2023/05/11 04:32:52;;;;;;;;;;;;;;;11.85;100.00;97454.13;1688212;75;1935751;-73
2023/05/11 04:35:25;;;;;;;3.60;2.40;;;;;;;11.86;100.00;97448.16;1710453;75;744125;-73
2023/05/11 04:37:55;;;;;;;3.30;2.30;;;;;;;11.81;100.00;97459.84;1703149;75;684974;-76
2023/05/11 04:40:25;;;;;;;4.00;2.50;;;;;;;11.90;100.00;97461.66;1710741;75;680392;-74
2023/05/11 04:42:56;;;;;;;3.70;2.20;;;;;;;11.90;100.00;97451.41;1702119;75;690174;-75
2023/05/11 04:45:26;;;;;;;3.10;1.90;;;;;;;11.95;100.00;97458.19;1710752;75;674764;-75
2023/05/11 04:47:56;;;;;;;4.00;2.40;;;;;;;11.86;100.00;97447.41;1699465;75;967123;-71
2023/05/11 04:50:29;;;;;;;2.30;2.10;;;;;;;11.89;100.00;97460.16;1710830;75;676363;-74
2023/05/11 04:52:59;;;;;;;4.10;2.10;;;;;;;11.90;100.00;97451.41;1702867;75;699468;-72
2023/05/11 04:55:29;;;;;;;3.60;2.20;;;;;;;11.97;100.00;97458.44;1710284;75;793041;-73
2023/05/11 04:57:59;;;;;;;2.10;1.90;;;;;;;12.01;100.00;97460.97;1703711;75;679050;-73
2023/05/11 05:00:30;;;;;;;2.50;1.90;;;;;;;11.93;100.00;97457.94;1711169;75;675186;-73
2023/05/11 05:03:00;;;;;;;1.60;1.50;;;;;;;12.10;100.00;97467.03;1703497;75;678833;-73
2023/05/11 05:05:33;;;;;;;2.20;1.70;;;;;;;12.11;100.00;97456.78;1711383;75;672611;-73
2023/05/11 05:08:03;;;;;;;1.30;1.20;;;;;;;12.19;100.00;97459.81;1703248;75;674209;-74
2023/05/11 05:10:34;;;;;;;1.10;1.00;;;;;;;12.22;100.00;97458.81;1711899;75;673281;-73
2023/05/11 05:13:04;;;;;;;1.40;1.20;;;;;;;12.24;100.00;97454.38;1702795;75;672166;-74
2023/05/11 05:15:34;;;;;;;1.20;1.10;;;;;;;12.33;100.00;97456.88;1711209;75;678440;-75
2023/05/11 05:18:04;;;;;;;1.15;1.05;;;;;;;12.37;100.00;97467.66;1702734;75;761941;-73
2023/05/11 05:20:38;;;;;;;1.10;1.00;;;;;;;12.39;100.00;97461.66;1710428;75;799213;-73
2023/05/11 05:23:08;;;;;;;2.25;1.00;;;;;;;12.45;100.00;97465.19;1703177;75;677312;-72
2023/05/11 05:25:38;;;;;;;3.00;1.00;;;;;;;12.35;100.00;97462.66;1710799;75;688347;-75
2023/05/11 05:28:08;;;;;;;2.50;1.50;;;;;;;12.40;100.00;97466.66;1703189;75;673391;-76
2023/05/11 05:30:39;;;;;;;2.80;1.60;;;;;;;12.41;98.28;97470.16;1707997;75;977791;-74
2023/05/11 05:33:09;;;;;;;3.00;1.60;;;;;;;12.42;97.54;97466.91;1703062;75;673888;-77
2023/05/11 05:35:42;;;;;;;2.80;1.70;;;;;;;12.31;97.75;97467.63;1710985;75;696080;-74
2023/05/11 05:38:12;;;;;;;2.40;2.00;;;;;;;12.29;96.60;97467.38;1702297;75;741163;-78
2023/05/11 05:40:43;;;;;;;2.70;2.00;;;;;;;12.31;95.93;97456.66;1711664;75;675067;-77
2023/05/11 05:43:13;;;;;;;2.90;1.70;;;;;;;12.33;96.44;97465.13;1700458;75;853979;-73
2023/05/11 05:45:43;;;;;;;3.80;2.15;;;;;;;12.34;95.25;97461.16;1711306;75;675756;-75
2023/05/11 05:48:14;;;;;;;2.65;1.80;;;;;;;12.34;95.68;97465.91;1700129;75;871964;-77
2023/05/11 05:50:48;;;;;;;2.00;1.70;;;;;;;12.38;94.24;97463.66;1711545;75;675835;-73
2023/05/11 05:53:20;;;;;;;1.60;1.40;;;;;;;12.46;93.95;97464.69;1702598;75;754474;-73
2023/05/11 05:55:50;;;;;;;2.20;1.60;;;;;;;12.42;94.30;97458.69;1697597;75;1849158;-74
2023/05/11 05:58:20;;;;;;;3.80;1.95;;;;;;;12.41;95.00;97470.16;1702195;75;755810;-75
2023/05/11 06:00:51;;;;;;;2.65;1.85;;;;;;;12.33;93.99;97470.63;1707672;75;896422;-73
2023/05/11 06:03:21;;;;;;;2.55;1.80;;;;;;;12.43;94.72;97467.66;1700991;75;811536;-73
2023/05/11 06:05:54;;;;;;;1.70;1.45;;;;;;;12.43;91.77;97462.91;1709661;75;845228;-75
2023/05/11 06:08:24;;;;;;;2.15;1.70;;;;;;;12.48;92.48;97464.97;1702413;75;753317;-74
2023/05/11 06:10:54;;;;;;;2.65;1.95;;;;;;;12.45;91.75;97465.94;1711619;75;672333;-74
2023/05/11 06:13:26;;;;;;;2.70;2.20;;;;;;;12.45;90.87;97460.44;1700024;75;903179;-73
2023/05/11 06:15:56;;;;;;;7.20;2.30;;;;;;;12.47;89.67;97465.44;1697330;75;1841317;-73
2023/05/11 06:18:26;;;;;;;2.55;1.80;;;;;;;12.48;89.84;97467.72;1701998;75;783991;-74
2023/05/11 06:20:59;;;;;;;3.50;2.00;;;;;;;12.61;89.27;97472.00;1710134;75;807650;-72
2023/05/11 06:23:29;;;;;;;2.05;1.60;;;;;;;12.70;89.06;97471.75;1677314;75;2812737;-74
2023/05/11 06:25:59;;;;;;;3.45;1.75;;;;;;;12.58;89.46;97466.25;1711199;75;677674;-73
2023/05/11 06:28:29;;;;;;;3.50;2.10;;;;;;;12.68;88.59;97466.78;1700022;75;902251;-73
2023/05/11 06:31:02;;;;;;;2.05;1.70;;;;;;;12.68;89.01;97472.25;1708177;75;938699;-73
2023/05/11 06:33:32;;;;;;;4.20;2.50;;;;;;;12.58;88.09;97462.75;1702323;75;752614;-73
2023/05/11 06:36:07;;;;;;;2.30;2.00;;;;;;;12.65;88.51;97470.50;1708951;75;890514;-72
2023/05/11 06:38:38;;;;;;;3.40;2.10;;;;;;;12.57;89.38;97477.72;1688261;75;1901055;-75
2023/05/11 06:41:10;;;;;;;2.60;2.30;;;;;;;12.62;88.81;97466.00;1711328;75;674596;-75
2023/05/11 06:43:40;;;;;;;3.05;2.35;;;;;;;12.60;87.22;97462.97;1702027;75;741074;-72
2023/05/11 06:46:15;;;;;;;2.50;1.80;;;;;;;12.57;87.11;97470.22;1711079;75;678213;-74
2023/05/11 06:48:45;;;;;;;4.15;2.10;;;;;;;12.57;87.39;97466.72;1702147;75;739259;-73
2023/05/11 06:51:19;;;;;;;6.90;2.60;;;;;;;12.60;87.96;97464.97;1711150;75;678224;-73
2023/05/11 06:53:50;;;;;;;2.55;1.90;;;;;;;12.64;88.66;97469.00;1701998;75;747032;-73
2023/05/11 06:56:20;;;;;;;2.60;1.80;;;;;;;12.73;87.21;97465.28;1711251;75;671934;-73
2023/05/11 06:58:50;;;;;;;2.70;1.80;;;;;;;12.78;88.34;97467.31;1700827;75;817738;-74
2023/05/11 07:01:20;;;;;;;3.15;1.60;;;;;;;12.79;88.76;97466.03;1698167;75;1808656;-74
2023/05/11 07:03:51;;;;;;;2.95;1.75;;;;;;;12.79;89.62;97468.78;1701020;75;792837;-73
2023/05/11 07:06:23;;;;;;;2.85;2.15;;;;;;;12.67;87.70;97465.25;1698607;75;1758166;-74
2023/05/11 07:08:54;;;;;;;2.80;2.00;;;;;;;12.82;89.29;97464.31;1689745;75;1747082;-72
2023/05/11 07:11:24;;;;;;;3.15;2.20;;;;;;;12.65;88.64;97462.28;1698422;75;1781496;-77
2023/05/11 07:13:54;;;;;;;4.40;2.30;;;;;;;12.68;87.82;97469.53;1699120;75;964176;-75
2023/05/11 07:16:24;;;;;;;2.10;1.90;;;;;;;12.76;87.63;97467.03;1711226;75;685341;-77
2023/05/11 07:18:55;;;;;;;2.45;2.10;;;;;;;12.69;86.94;97465.53;1702974;75;731659;-74
2023/05/11 07:21:27;;;;;;;2.45;2.00;;;;;;;12.85;86.79;97469.56;1711894;75;672490;-74
2023/05/11 07:23:58;;;;;;;2.05;1.30;;;;;;;12.90;87.22;97471.56;1702923;75;763746;-74
2023/05/11 07:26:28;;;;;;;2.50;1.80;;;;;;;12.87;87.40;97474.56;1711649;75;679769;-73
2023/05/11 07:28:58;;;;;;;3.85;2.25;;;;;;;12.74;89.07;97470.28;1702125;75;749941;-72
2023/05/11 07:31:28;;;;;;;1.90;1.50;;;;;;;12.79;88.57;97472.31;1709916;75;790868;-74
2023/05/11 07:33:59;;;;;;;3.80;2.15;;;;;;;12.48;88.25;97481.44;1702513;75;747886;-73
2023/05/11 07:36:32;;;;;;;2.80;2.20;;;;;;;12.59;88.51;97480.72;1710486;75;676724;-77
2023/05/11 07:39:02;;;;;;;3.75;2.75;;;;;;;12.49;89.26;97482.19;1702461;75;747564;-75
2023/05/11 07:41:32;;;;;;;3.25;2.35;;;;;;;12.54;88.82;97476.72;1711155;75;676050;-73
2023/05/11 07:44:05;;;;;;;2.90;2.35;;;;;;;12.39;89.91;97481.63;1701519;75;759970;-74
2023/05/11 07:46:36;;;;;;;4.20;2.10;;;;;;;12.65;88.37;97486.22;1711114;75;676535;-74
2023/05/11 07:49:07;;;;;;;2.95;2.50;;;;;;;12.54;89.42;97484.94;1701252;75;747200;-74
2023/05/11 07:51:40;;;;;;;2.70;1.80;;;;;;;12.81;88.78;97479.28;1711356;75;676592;-72
2023/05/11 07:54:11;;;;;;;2.50;1.55;;;;;;;12.88;89.36;97485.06;1702406;75;742779;-73
2023/05/11 07:56:41;;;;;;;2.40;1.90;;;;;;;12.74;89.05;97483.25;1708622;75;872638;-73
2023/05/11 07:59:11;;;;;;;3.10;1.95;;;;;;;12.53;92.63;97485.44;1701169;75;746766;-73
2023/05/11 08:01:42;;;;;;;2.50;2.00;;;;;;;12.70;92.36;97482.75;1710725;75;684597;-73
2023/05/11 08:04:12;;;;;;;1.70;1.60;;;;;;;12.78;91.51;97481.78;1701991;75;747298;-73
2023/05/11 08:06:45;;;;;;;2.05;1.60;;;;;;;12.69;93.75;97484.75;1711282;75;687093;-72
2023/05/11 08:09:15;;;;;;;1.90;1.70;;;;;;;12.59;94.42;97483.47;1701488;75;754491;-76
2023/05/11 08:11:45;;;;;;;2.00;1.75;;;;;;;12.69;95.97;97482.00;1711229;75;679869;-74
2023/05/11 08:14:15;;;;;;;2.90;2.30;;;;;;;12.62;94.18;97473.50;1699022;75;956604;-72
2023/05/11 08:16:46;;;;;;;4.00;2.20;;;;;;;12.53;98.90;97477.19;1711274;75;680292;-74
2023/05/11 08:19:16;;;;;;;2.45;2.15;;;;;;;12.61;100.00;97470.00;1702092;75;755997;-72
2023/05/11 08:21:49;;;;;;;2.40;2.00;;;;;;;12.55;100.00;97480.97;1711377;75;678553;-74
2023/05/11 08:24:19;;;;;;;2.50;1.95;;;;;;;12.57;100.00;97477.72;1688162;75;1840357;-74
2023/05/11 08:26:49;;;;;;;2.60;2.00;;;;;;;12.51;100.00;97474.22;1707991;75;959723;-72
2023/05/11 08:29:19;;;;;;;3.00;2.45;;;;;;;12.49;100.00;97482.94;1702214;75;743807;-72
2023/05/11 08:31:49;;;;;;;2.40;1.90;;;;;;;12.28;100.00;97474.09;1569043;75;12674578;-73
2023/05/11 08:34:21;;;;;;;2.20;1.70;;;;;;;12.34;100.00;97476.88;1702587;75;746760;-73
2023/05/11 08:36:54;;;;;;;2.35;1.40;;;;;;;12.33;100.00;97478.09;1709867;75;820261;-73
2023/05/11 08:39:25;;;;;;;1.50;1.40;;;;;;;12.39;100.00;97484.38;1699347;75;955144;-76
2023/05/11 08:41:58;;;;;;;2.05;1.85;;;;;;;12.44;100.00;97478.16;1710866;75;685234;-75
2023/05/11 08:44:29;;;;;;;2.80;1.40;;;;;;;12.54;100.00;97481.44;1700092;75;856861;-77
2023/05/11 08:47:00;;;;;;;1.65;1.40;;;;;;;12.60;100.00;97481.47;1711108;75;679150;-74
2023/05/11 08:49:31;;;;;;;2.30;1.50;;;;;;;12.56;100.00;97476.22;1687412;75;1918129;-73
2023/05/11 08:52:07;;;;;;;1.80;1.70;;;;;;;12.50;100.00;97467.94;1708741;75;845427;-73
2023/05/11 08:54:37;;;;;;;2.70;1.90;;;;;;;12.64;100.00;97468.25;1699077;75;943760;-74
2023/05/11 08:57:08;;;;;;;1.60;1.50;;;;;;;12.76;100.00;97472.53;1707143;75;989182;-75
2023/05/11 08:59:42;;;;;;;1.70;1.40;;;;;;;12.72;100.00;97467.28;1701470;75;739523;-73
2023/05/11 09:02:18;;;;;;;2.40;1.80;;;;;;;12.43;100.00;97471.16;1711354;75;671791;-75
2023/05/11 09:04:49;;;;;;;2.70;1.95;;;;;;;12.56;100.00;97468.72;1689948;75;1724053;-72
2023/05/11 09:07:26;;;;;;;2.60;1.90;;;;;;;12.70;100.00;97475.28;1709400;75;854412;-74
2023/05/11 09:09:56;;;;;;;1.90;1.60;;;;;;;12.67;100.00;97465.25;1699052;75;933568;-73
2023/05/11 09:12:27;;;;;;;2.20;1.60;;;;;;;12.69;100.00;97471.00;1711358;75;669846;-73
2023/05/11 09:14:58;;;;;;;2.30;1.80;;;;;;;12.52;100.00;97475.69;1699383;75;915134;-72
2023/05/11 09:17:28;;;;;;;2.00;1.70;;;;;;;12.66;100.00;97477.50;1711334;75;676143;-75
2023/05/11 09:20:04;;;;;;;1.60;1.40;;;;;;;12.67;100.00;97479.00;1701212;75;810978;-73
2023/05/11 09:22:44;;;;;;;2.50;1.80;;;;;;;12.71;100.00;97471.28;1703258;75;676214;-73
2023/05/11 09:25:16;;;;;;;2.50;1.80;;;;;;;12.55;100.00;97463.72;1710663;75;670580;-74
2023/05/11 09:27:47;;;;;;;4.60;2.10;;;;;;;12.29;100.00;97478.34;1700012;75;960131;-73
2023/05/11 09:30:20;;;;;;;3.30;2.60;;;;;;;12.21;100.00;97482.03;1710833;75;671999;-73
2023/05/11 09:32:53;;;;;;;3.70;2.50;;;;;;;12.18;100.00;97474.78;1700340;75;901884;-75
2023/05/11 09:35:25;;;;;;;3.30;2.70;;;;;;;12.08;100.00;97469.50;1707645;75;954277;-72
2023/05/11 09:38:07;;;;;;;2.45;2.00;;;;;;;12.28;100.00;97465.84;1702668;75;678360;-72
2023/05/11 09:40:41;;;;;;;2.40;1.80;;;;;;;12.36;100.00;97464.16;1703568;75;674736;-72
2023/05/11 09:43:20;;;;;;;2.00;1.70;;;;;;;12.54;100.00;97462.22;1711180;75;672949;-73
2023/05/11 09:45:52;;;;;;;1.50;1.40;;;;;;;12.64;100.00;97460.00;1703229;75;673444;-75
2023/05/11 09:48:32;;;;;;;2.20;1.70;;;;;;;12.54;100.00;97454.75;1710964;75;712583;-74
2023/05/11 09:51:06;;;;;;;2.25;2.00;;;;;;;12.50;100.00;97448.72;1702121;75;751208;-77
2023/05/11 09:53:44;;;;;;;2.25;2.05;;;;;;;12.48;100.00;97453.97;1711323;75;675784;-76
2023/05/11 09:56:15;;;;;;;2.20;1.80;;;;;;;12.60;100.00;97454.75;1699754;75;917264;-73
2023/05/11 09:58:53;;;;;;;1.80;1.55;;;;;;;12.58;100.00;97449.03;1711377;75;683929;-75
2023/05/11 10:01:33;;;;;;;1.80;1.50;;;;;;;12.66;100.00;97450.03;1702643;75;742393;-74
2023/05/11 10:04:07;;;;;;;2.25;1.70;;;;;;;12.56;100.00;97446.75;1701039;75;881298;-77
2023/05/11 10:06:51;;;;;;;2.00;1.60;;;;;;;12.44;100.00;97453.47;1711469;75;677375;-73
2023/05/11 10:09:28;;;;;;;3.20;2.30;;;;;;;12.24;100.00;97454.38;1688908;75;1909837;-72
2023/05/11 10:11:58;;;;;;;3.30;2.70;;;;;;;12.16;100.00;97447.84;1710824;75;723758;-74
2023/05/11 10:14:32;;;;;;;4.75;2.60;;;;;;;12.12;100.00;97455.53;1688191;75;1877908;-76
2023/05/11 10:17:05;;;;;;;5.50;3.10;;;;;;;12.09;100.00;97462.00;1711303;75;688824;-73
2023/05/11 10:19:36;;;;;;;5.30;4.15;;;;;;;11.88;100.00;97464.91;1702549;75;744205;-72
2023/05/11 10:22:07;;;;;;;4.90;3.90;;;;;;;11.78;100.00;97463.53;1707917;75;940227;-74
2023/05/11 10:24:41;;;;;;;5.80;3.80;;;;;;;11.79;100.00;97456.09;1702420;75;735330;-71
2023/05/11 10:27:14;;;;;;;6.00;4.20;;;;;;;11.64;100.00;97456.19;1711245;75;675920;-74
2023/05/11 10:29:45;;;;;;;5.85;4.85;;;;;;;11.38;100.00;97465.25;1688338;75;1846829;-74
2023/05/11 10:32:18;;;;;;;6.45;5.00;;;;;;;11.36;100.00;97464.22;1696732;75;1884811;-74
2023/05/11 10:34:50;;;;;;;8.20;5.55;;;;;;;11.33;100.00;97468.69;1688788;75;1818626;-75
2023/05/11 10:37:21;;;;;;;7.65;5.70;;;;;;;11.35;100.00;97462.72;1709547;75;829331;-73
2023/05/11 10:39:54;;;;;;;6.45;4.65;;;;;;;11.45;100.00;97466.81;1701587;75;750607;-75
2023/05/11 10:42:51;;;;;;;6.20;5.00;;;;;;;11.43;100.00;97461.78;1710721;75;668980;-73
2023/05/11 10:45:26;;;;;;;7.30;5.45;;;;;;;11.27;100.00;97465.13;1701698;75;741694;-72
2023/05/11 10:48:35;;;;;;;10.80;7.30;;;;;;;11.06;100.00;97464.44;1711430;75;670706;-72
2023/05/11 10:51:57;;;;;;;6.30;5.30;;;;;;;10.95;100.00;97465.09;1699118;75;928200;-72
2023/05/11 10:54:46;;;;;;;10.75;7.35;;;;;;;11.11;100.00;97471.97;1700794;75;796017;-72
2023/05/11 10:57:46;;;;;;;5.10;4.20;;;;;;;11.04;100.00;97466.91;1703134;75;691491;-75
2023/05/11 11:01:11;;;;;;;5.80;4.10;;;;;;;11.02;100.00;97463.94;1689770;75;1824192;-74
2023/05/11 11:03:42;;;;;;;5.60;4.40;;;;;;;10.96;100.00;97461.13;1701718;75;737142;-72
2023/05/11 11:06:27;;;;;;;4.50;3.60;;;;;;;10.99;100.00;97470.34;1710315;75;673281;-75
2023/05/11 11:09:03;;;;;;;3.95;3.40;;;;;;;11.05;100.00;97462.94;1699747;75;875287;-72
2023/05/11 11:11:38;;;;;;;3.70;3.30;;;;;;;11.21;100.00;97465.09;1707208;75;672605;-72
2023/05/11 11:14:13;;;;;;;4.70;3.70;;;;;;;11.07;100.00;97458.50;1710749;75;678134;-72
2023/05/11 11:17:04;;;;;;;4.20;3.60;;;;;;;11.08;100.00;97459.97;1702835;75;676459;-73
2023/05/11 11:19:40;;;;;;;4.20;3.60;;;;;;;11.28;100.00;97464.66;1703234;75;677921;-71
2023/05/11 11:22:48;;;;;;;4.70;3.20;;;;;;;11.35;100.00;97454.50;1711256;75;676343;-72
2023/05/11 11:25:55;;;;;;;3.15;2.70;;;;;;;11.27;100.00;97459.66;1700155;75;889479;-74
2023/05/11 11:28:26;;;;;;;2.55;2.35;;;;;;;11.44;100.00;97455.06;1688547;75;1815946;-73
2023/05/11 11:31:31;;;;;;;3.45;2.65;;;;;;;11.41;100.00;97453.31;1708276;75;924456;-72
2023/05/11 11:34:36;;;;;;;6.30;5.05;;;;;;;10.93;100.00;97451.13;1701421;75;756531;-74
2023/05/11 11:37:12;;;;;;;5.85;5.10;;;;;;;10.99;100.00;97453.91;1702015;75;743383;-73
2023/05/11 11:40:02;;;;;;;4.80;4.10;;;;;;;11.15;100.00;97449.84;1691289;75;1684183;-72
2023/05/11 11:42:41;;;;;;;5.65;4.25;;;;;;;11.23;100.00;97457.16;1671689;75;4042426;-73
2023/05/11 11:45:31;;;;;;;3.75;3.35;;;;;;;11.44;100.00;97435.13;1702537;75;751243;-72
2023/05/11 11:48:16;;;;;;;3.55;2.80;;;;;;;11.54;100.00;97446.66;1703429;75;674690;-72
2023/05/11 11:50:49;;;;;;;5.20;3.85;;;;;;;11.49;100.00;97443.38;1710297;75;741099;-72